PRLJT EFET-LIPB
Flight info
| Callsign | PRLJT |
|---|---|
| Flight time | N/A |
| Altitude | 38000 |
| Route | DOPUD DCT OSKOK T65 ABUNO/N0441F390 DCT TUMGU DCT LATKU L996 KELIN/N0442F400 DCT VADIN M852 GODOG/N0436F390 DCT NEBUN DCT EMBOX DCT LASGA DCT NORIN M726 BRENO DCT NAXAV |
| Aircraft | E190/M-SDE1E2E3FGHIJ3J4J7P2RWXY/LB1D1G1 |
Departure
| Time | N/A |
|---|---|
| Airport | Enontekio Airport (EFET) |
Arrival
| Time | 2026-04-21 16:39 |
|---|---|
| Airport | Bolzano Airport (LIPB) |
| Time | Latitude | Longitude | Altitude | Speed | Heading |
|---|---|---|---|---|---|
| 2026-04-21 16:23 | 46.39964 | 11.32252 | 20598 ft | 367 kts | 185° |
| 2026-04-21 16:23 | 46.37447 | 11.32267 | 20024 ft | 358 kts | 185° |
| 2026-04-21 16:23 | 46.35002 | 11.32280 | 19465 ft | 351 kts | 185° |
| 2026-04-21 16:24 | 46.32583 | 11.32292 | 18901 ft | 345 kts | 185° |
| 2026-04-21 16:24 | 46.30242 | 11.32305 | 18341 ft | 339 kts | 185° |
| 2026-04-21 16:24 | 46.27900 | 11.32317 | 17683 ft | 331 kts | 184° |
| 2026-04-21 16:24 | 46.25627 | 11.32329 | 16994 ft | 323 kts | 184° |
| 2026-04-21 16:25 | 46.23418 | 11.32341 | 16437 ft | 312 kts | 183° |
| 2026-04-21 16:25 | 46.21294 | 11.32352 | 15952 ft | 301 kts | 183° |
| 2026-04-21 16:25 | 46.19236 | 11.32364 | 15466 ft | 292 kts | 183° |
| 2026-04-21 16:25 | 46.17245 | 11.32373 | 14970 ft | 285 kts | 183° |
| 2026-04-21 16:26 | 46.15293 | 11.32383 | 14490 ft | 278 kts | 182° |
| 2026-04-21 16:26 | 46.13370 | 11.32393 | 14052 ft | 276 kts | 181° |
| 2026-04-21 16:26 | 46.11457 | 11.32402 | 13592 ft | 276 kts | 181° |
| 2026-04-21 16:26 | 46.09544 | 11.32412 | 13118 ft | 276 kts | 181° |
| 2026-04-21 16:27 | 46.07692 | 11.32423 | 12999 ft | 262 kts | 181° |
| 2026-04-21 16:27 | 46.05862 | 11.32433 | 12992 ft | 261 kts | 181° |
| 2026-04-21 16:27 | 46.04064 | 11.32372 | 12988 ft | 262 kts | 193° |
| 2026-04-21 16:27 | 46.02495 | 11.31167 | 13030 ft | 256 kts | 231° |
| 2026-04-21 16:28 | 46.01766 | 11.28914 | 13088 ft | 250 kts | 268° |
| 2026-04-21 16:28 | 46.01808 | 11.26435 | 13136 ft | 248 kts | 276° |
| 2026-04-21 16:28 | 46.01952 | 11.23974 | 13139 ft | 247 kts | 278° |
| 2026-04-21 16:28 | 46.02121 | 11.21553 | 13134 ft | 245 kts | 278° |
| 2026-04-21 16:29 | 46.02244 | 11.19915 | 13137 ft | 247 kts | 278° |
| 2026-04-21 16:29 | 46.02501 | 11.16668 | 13164 ft | 245 kts | 282° |
| 2026-04-21 16:29 | 46.03249 | 11.14560 | 13185 ft | 241 kts | 319° |
| 2026-04-21 16:29 | 46.04766 | 11.13545 | 13025 ft | 247 kts | 353° |
| 2026-04-21 16:30 | 46.06429 | 11.13915 | 12723 ft | 247 kts | 14° |
| 2026-04-21 16:30 | 46.08071 | 11.14627 | 12407 ft | 245 kts | 15° |
| 2026-04-21 16:30 | 46.09685 | 11.15339 | 12131 ft | 243 kts | 15° |
| 2026-04-21 16:30 | 46.11290 | 11.16066 | 11840 ft | 242 kts | 17° |
| 2026-04-21 16:31 | 46.12917 | 11.16832 | 11415 ft | 245 kts | 17° |
| 2026-04-21 16:31 | 46.14537 | 11.17597 | 10923 ft | 248 kts | 17° |
| 2026-04-21 16:31 | 46.16151 | 11.18361 | 10460 ft | 242 kts | 17° |
| 2026-04-21 16:31 | 46.17727 | 11.19108 | 9915 ft | 237 kts | 18° |
| 2026-04-21 16:32 | 46.19261 | 11.19836 | 9408 ft | 231 kts | 18° |
| 2026-04-21 16:32 | 46.20761 | 11.20548 | 8939 ft | 226 kts | 18° |
| 2026-04-21 16:32 | 46.22235 | 11.21247 | 8475 ft | 221 kts | 18° |
| 2026-04-21 16:32 | 46.23674 | 11.21932 | 8021 ft | 217 kts | 19° |
| 2026-04-21 16:33 | 46.25088 | 11.22604 | 7587 ft | 213 kts | 19° |
| 2026-04-21 16:33 | 46.26481 | 11.23266 | 7164 ft | 209 kts | 19° |
| 2026-04-21 16:33 | 46.27844 | 11.23915 | 6768 ft | 207 kts | 20° |
| 2026-04-21 16:33 | 46.29224 | 11.24573 | 6315 ft | 209 kts | 19° |
| 2026-04-21 16:34 | 46.30592 | 11.25225 | 5882 ft | 209 kts | 19° |
| 2026-04-21 16:34 | 46.31977 | 11.25885 | 5445 ft | 210 kts | 20° |
| 2026-04-21 16:34 | 46.33345 | 11.26538 | 5008 ft | 210 kts | 20° |
| 2026-04-21 16:34 | 46.34694 | 11.27181 | 4557 ft | 198 kts | 20° |
| 2026-04-21 16:35 | 46.35945 | 11.27777 | 4213 ft | 177 kts | 20° |
| 2026-04-21 16:35 | 46.37064 | 11.28311 | 3821 ft | 165 kts | 20° |
| 2026-04-21 16:35 | 46.38115 | 11.28814 | 3500 ft | 154 kts | 20° |
| 2026-04-21 16:35 | 46.39100 | 11.29310 | 3220 ft | 146 kts | 21° |
| 2026-04-21 16:36 | 46.40042 | 11.29807 | 2917 ft | 145 kts | 22° |
| 2026-04-21 16:36 | 46.41004 | 11.30312 | 2519 ft | 147 kts | 21° |
| 2026-04-21 16:36 | 46.41988 | 11.30740 | 2270 ft | 148 kts | 16° |
| 2026-04-21 16:36 | 46.42994 | 11.31021 | 2077 ft | 146 kts | 11° |
| 2026-04-21 16:37 | 46.44006 | 11.31228 | 1930 ft | 149 kts | 5° |
| 2026-04-21 16:37 | 46.45063 | 11.31236 | 1725 ft | 150 kts | 359° |
| 2026-04-21 16:37 | 46.46085 | 11.31176 | 1505 ft | 142 kts | 1° |
| 2026-04-21 16:37 | 46.47024 | 11.31259 | 1302 ft | 133 kts | 6° |
| 2026-04-21 16:38 | 46.47875 | 11.31530 | 1265 ft | 124 kts | 37° |
| 2026-04-21 16:38 | 46.48206 | 11.32580 | 1424 ft | 116 kts | 116° |
| 2026-04-21 16:38 | 46.47498 | 11.33089 | 1291 ft | 136 kts | 185° |
| 2026-04-21 16:38 | 46.46587 | 11.32781 | 908 ft | 131 kts | 187° |
| 2026-04-21 16:39 | 46.45774 | 11.32582 | 825 ft | 101 kts | 191° |
| 2026-04-21 16:39 | 46.45373 | 11.32474 | 824 ft | 36 kts | 189° |
| 2026-04-21 16:39 | 46.45219 | 11.32451 | 824 ft | 9 kts | 164° |
| 2026-04-21 16:39 | 46.45172 | 11.32425 | 824 ft | 6 kts | 282° |
| 2026-04-21 16:40 | 46.45220 | 11.32416 | 823 ft | 8 kts | 8° |
| 2026-04-21 16:40 | 46.45284 | 11.32435 | 823 ft | 10 kts | 14° |
| 2026-04-21 16:40 | 46.45353 | 11.32465 | 824 ft | 11 kts | 11° |
| 2026-04-21 16:40 | 46.45441 | 11.32483 | 825 ft | 14 kts | 10° |
| 2026-04-21 16:41 | 46.45517 | 11.32508 | 825 ft | 18 kts | 10° |
| 2026-04-21 16:41 | 46.45721 | 11.32562 | 825 ft | 26 kts | 9° |
| 2026-04-21 16:41 | 46.45917 | 11.32614 | 825 ft | 31 kts | 11° |
| 2026-04-21 16:41 | 46.46119 | 11.32665 | 825 ft | 19 kts | 11° |
| 2026-04-21 16:42 | 46.46215 | 11.32691 | 825 ft | 4 kts | 10° |
| 2026-04-21 16:42 | 46.46244 | 11.32714 | 825 ft | 5 kts | 77° |
| 2026-04-21 16:42 | 46.46242 | 11.32766 | 826 ft | 5 kts | 98° |
| 2026-04-21 16:42 | 46.46242 | 11.32807 | 827 ft | 3 kts | 64° |
| 2026-04-21 16:43 | 46.46249 | 11.32820 | 828 ft | 1 kts | 63° |
| 2026-04-21 16:43 | 46.46252 | 11.32834 | 828 ft | 1 kts | 83° |
| 2026-04-21 16:43 | 46.46252 | 11.32856 | 828 ft | 3 kts | 94° |
| 2026-04-21 16:43 | 46.46250 | 11.32878 | 828 ft | 1 kts | 98° |
| 2026-04-21 16:44 | 46.46249 | 11.32879 | 828 ft | 0 kts | 98° |